sensor_id;sensor_type;location;lat;lon;timestamp;temperature;humidity
14934;DHT22;7560;51.364;12.384;2023-05-07T00:00:46;11.00;99.90
14934;DHT22;7560;51.364;12.384;2023-05-07T00:05:49;10.90;99.90
14934;DHT22;7560;51.364;12.384;2023-05-07T00:10:56;10.90;99.90
14934;DHT22;7560;51.364;12.384;2023-05-07T00:15:58;11.00;99.90
14934;DHT22;7560;51.364;12.384;2023-05-07T00:21:00;10.90;99.90
14934;DHT22;7560;51.364;12.384;2023-05-07T00:26:03;10.90;99.90
14934;DHT22;7560;51.364;12.384;2023-05-07T00:31:06;10.90;99.90
14934;DHT22;7560;51.364;12.384;2023-05-07T00:36:09;10.90;99.90
14934;DHT22;7560;51.364;12.384;2023-05-07T00:41:11;10.90;99.90
14934;DHT22;7560;51.364;12.384;2023-05-07T00:46:21;10.80;99.90
14934;DHT22;7560;51.364;12.384;2023-05-07T00:51:25;10.70;99.90
14934;DHT22;7560;51.364;12.384;2023-05-07T00:56:31;10.80;99.90
14934;DHT22;7560;51.364;12.384;2023-05-07T01:01:34;10.90;99.90
14934;DHT22;7560;51.364;12.384;2023-05-07T01:06:36;10.80;99.90
14934;DHT22;7560;51.364;12.384;2023-05-07T01:11:40;10.90;99.90
14934;DHT22;7560;51.364;12.384;2023-05-07T01:16:42;10.80;99.90
14934;DHT22;7560;51.364;12.384;2023-05-07T01:21:47;10.60;99.90
14934;DHT22;7560;51.364;12.384;2023-05-07T01:26:50;10.70;99.90
14934;DHT22;7560;51.364;12.384;2023-05-07T01:31:53;10.70;99.90
14934;DHT22;7560;51.364;12.384;2023-05-07T01:37:00;10.60;99.90
14934;DHT22;7560;51.364;12.384;2023-05-07T01:42:04;10.60;99.90
14934;DHT22;7560;51.364;12.384;2023-05-07T01:47:06;10.80;99.90
14934;DHT22;7560;51.364;12.384;2023-05-07T01:52:10;10.80;99.90
14934;DHT22;7560;51.364;12.384;2023-05-07T01:57:12;10.80;99.90
14934;DHT22;7560;51.364;12.384;2023-05-07T02:02:15;10.80;99.90
14934;DHT22;7560;51.364;12.384;2023-05-07T02:07:17;10.50;99.90
14934;DHT22;7560;51.364;12.384;2023-05-07T02:12:19;10.50;99.90
14934;DHT22;7560;51.364;12.384;2023-05-07T02:17:21;10.50;99.90
14934;DHT22;7560;51.364;12.384;2023-05-07T02:22:23;10.50;99.90
14934;DHT22;7560;51.364;12.384;2023-05-07T02:27:26;10.50;99.90
14934;DHT22;7560;51.364;12.384;2023-05-07T02:32:29;10.50;99.90
14934;DHT22;7560;51.364;12.384;2023-05-07T02:37:31;10.60;99.90
14934;DHT22;7560;51.364;12.384;2023-05-07T02:42:32;10.40;99.90
14934;DHT22;7560;51.364;12.384;2023-05-07T02:47:35;10.40;99.90
14934;DHT22;7560;51.364;12.384;2023-05-07T02:52:37;10.40;99.90
14934;DHT22;7560;51.364;12.384;2023-05-07T02:57:40;10.40;99.90
14934;DHT22;7560;51.364;12.384;2023-05-07T03:02:44;10.40;99.90
14934;DHT22;7560;51.364;12.384;2023-05-07T03:07:47;10.50;99.90
14934;DHT22;7560;51.364;12.384;2023-05-07T03:12:54;10.40;99.90
14934;DHT22;7560;51.364;12.384;2023-05-07T03:17:56;10.60;99.90
14934;DHT22;7560;51.364;12.384;2023-05-07T03:22:59;10.50;99.90
14934;DHT22;7560;51.364;12.384;2023-05-07T03:28:02;10.40;99.90
14934;DHT22;7560;51.364;12.384;2023-05-07T03:33:05;10.40;99.90
14934;DHT22;7560;51.364;12.384;2023-05-07T03:38:07;10.50;99.90
14934;DHT22;7560;51.364;12.384;2023-05-07T03:43:08;10.40;99.90
14934;DHT22;7560;51.364;12.384;2023-05-07T03:48:11;10.50;99.90
14934;DHT22;7560;51.364;12.384;2023-05-07T03:53:13;10.60;99.90
14934;DHT22;7560;51.364;12.384;2023-05-07T03:58:15;10.30;99.90
14934;DHT22;7560;51.364;12.384;2023-05-07T04:03:18;10.30;99.90
14934;DHT22;7560;51.364;12.384;2023-05-07T04:08:24;10.40;99.90
14934;DHT22;7560;51.364;12.384;2023-05-07T04:13:27;10.50;99.90
14934;DHT22;7560;51.364;12.384;2023-05-07T04:18:30;10.40;99.90
14934;DHT22;7560;51.364;12.384;2023-05-07T04:23:33;10.40;99.90
14934;DHT22;7560;51.364;12.384;2023-05-07T04:28:35;10.70;99.90
14934;DHT22;7560;51.364;12.384;2023-05-07T04:33:37;10.70;99.90
14934;DHT22;7560;51.364;12.384;2023-05-07T04:38:39;10.50;99.90
14934;DHT22;7560;51.364;12.384;2023-05-07T04:43:41;10.80;99.90
14934;DHT22;7560;51.364;12.384;2023-05-07T04:48:44;10.80;99.90
14934;DHT22;7560;51.364;12.384;2023-05-07T04:53:49;10.70;99.90
14934;DHT22;7560;51.364;12.384;2023-05-07T04:58:51;10.70;99.90
14934;DHT22;7560;51.364;12.384;2023-05-07T05:03:53;10.60;99.90
14934;DHT22;7560;51.364;12.384;2023-05-07T05:08:58;10.70;99.90
14934;DHT22;7560;51.364;12.384;2023-05-07T05:14:00;10.70;99.90
14934;DHT22;7560;51.364;12.384;2023-05-07T05:19:05;10.60;99.90
14934;DHT22;7560;51.364;12.384;2023-05-07T05:24:07;10.50;99.90
14934;DHT22;7560;51.364;12.384;2023-05-07T05:29:10;10.70;99.90
14934;DHT22;7560;51.364;12.384;2023-05-07T05:34:12;10.70;99.90
14934;DHT22;7560;51.364;12.384;2023-05-07T05:39:14;10.60;99.90
14934;DHT22;7560;51.364;12.384;2023-05-07T05:44:16;10.70;99.90
14934;DHT22;7560;51.364;12.384;2023-05-07T05:49:21;10.60;99.90
14934;DHT22;7560;51.364;12.384;2023-05-07T05:54:23;10.60;99.90
14934;DHT22;7560;51.364;12.384;2023-05-07T05:59:25;10.70;99.90
14934;DHT22;7560;51.364;12.384;2023-05-07T06:04:28;10.90;99.90
14934;DHT22;7560;51.364;12.384;2023-05-07T06:09:32;10.90;99.90
14934;DHT22;7560;51.364;12.384;2023-05-07T06:14:34;11.10;99.90
14934;DHT22;7560;51.364;12.384;2023-05-07T06:19:37;11.00;99.90
14934;DHT22;7560;51.364;12.384;2023-05-07T06:24:40;11.10;99.90
14934;DHT22;7560;51.364;12.384;2023-05-07T06:29:42;11.20;99.90
14934;DHT22;7560;51.364;12.384;2023-05-07T06:34:44;11.50;99.90
14934;DHT22;7560;51.364;12.384;2023-05-07T06:39:47;11.60;99.90
14934;DHT22;7560;51.364;12.384;2023-05-07T06:44:49;11.40;99.90
14934;DHT22;7560;51.364;12.384;2023-05-07T06:49:53;11.30;99.90
14934;DHT22;7560;51.364;12.384;2023-05-07T06:54:55;11.60;99.90
14934;DHT22;7560;51.364;12.384;2023-05-07T06:59:59;11.60;99.90
14934;DHT22;7560;51.364;12.384;2023-05-07T07:05:00;11.40;99.90
14934;DHT22;7560;51.364;12.384;2023-05-07T07:10:04;11.20;99.90
14934;DHT22;7560;51.364;12.384;2023-05-07T07:15:08;11.30;99.90
14934;DHT22;7560;51.364;12.384;2023-05-07T07:20:10;11.50;99.90
14934;DHT22;7560;51.364;12.384;2023-05-07T07:25:13;11.90;99.90
14934;DHT22;7560;51.364;12.384;2023-05-07T07:30:17;11.90;99.90
14934;DHT22;7560;51.364;12.384;2023-05-07T07:35:21;12.50;99.90
14934;DHT22;7560;51.364;12.384;2023-05-07T07:40:26;12.40;99.90
14934;DHT22;7560;51.364;12.384;2023-05-07T07:45:31;12.20;99.90
14934;DHT22;7560;51.364;12.384;2023-05-07T07:50:32;12.40;99.90
14934;DHT22;7560;51.364;12.384;2023-05-07T07:55:45;12.50;99.90
14934;DHT22;7560;51.364;12.384;2023-05-07T08:00:48;12.60;99.90
14934;DHT22;7560;51.364;12.384;2023-05-07T08:05:50;12.60;99.90
14934;DHT22;7560;51.364;12.384;2023-05-07T08:10:52;12.20;99.90
14934;DHT22;7560;51.364;12.384;2023-05-07T08:15:56;12.40;99.90
14934;DHT22;7560;51.364;12.384;2023-05-07T08:20:59;12.50;99.90
14934;DHT22;7560;51.364;12.384;2023-05-07T08:26:02;12.50;99.90
14934;DHT22;7560;51.364;12.384;2023-05-07T08:31:06;12.80;99.90
14934;DHT22;7560;51.364;12.384;2023-05-07T08:36:10;12.30;99.90
14934;DHT22;7560;51.364;12.384;2023-05-07T08:41:13;12.40;99.90
14934;DHT22;7560;51.364;12.384;2023-05-07T08:46:19;12.40;99.90
14934;DHT22;7560;51.364;12.384;2023-05-07T08:51:21;12.30;99.90
14934;DHT22;7560;51.364;12.384;2023-05-07T08:56:23;12.40;99.90
14934;DHT22;7560;51.364;12.384;2023-05-07T09:01:27;12.80;99.90
14934;DHT22;7560;51.364;12.384;2023-05-07T09:06:29;12.60;99.90
14934;DHT22;7560;51.364;12.384;2023-05-07T09:11:31;12.60;99.90
14934;DHT22;7560;51.364;12.384;2023-05-07T09:16:33;12.70;99.90
14934;DHT22;7560;51.364;12.384;2023-05-07T09:21:35;12.60;99.90
14934;DHT22;7560;51.364;12.384;2023-05-07T09:26:41;12.70;99.90
14934;DHT22;7560;51.364;12.384;2023-05-07T09:31:43;12.80;99.90
14934;DHT22;7560;51.364;12.384;2023-05-07T09:36:45;13.00;99.90
14934;DHT22;7560;51.364;12.384;2023-05-07T09:41:48;12.70;99.90
14934;DHT22;7560;51.364;12.384;2023-05-07T09:46:54;13.00;99.90
14934;DHT22;7560;51.364;12.384;2023-05-07T09:52:01;12.80;99.90
14934;DHT22;7560;51.364;12.384;2023-05-07T09:57:04;12.90;99.90
14934;DHT22;7560;51.364;12.384;2023-05-07T10:02:07;12.90;99.90
14934;DHT22;7560;51.364;12.384;2023-05-07T10:07:13;13.00;99.90
14934;DHT22;7560;51.364;12.384;2023-05-07T10:12:18;13.00;99.90
14934;DHT22;7560;51.364;12.384;2023-05-07T10:17:20;13.00;99.90
14934;DHT22;7560;51.364;12.384;2023-05-07T10:22:26;13.00;99.90
14934;DHT22;7560;51.364;12.384;2023-05-07T10:27:30;13.10;99.90
14934;DHT22;7560;51.364;12.384;2023-05-07T10:32:49;13.50;99.90
14934;DHT22;7560;51.364;12.384;2023-05-07T10:37:55;13.30;99.90
14934;DHT22;7560;51.364;12.384;2023-05-07T10:43:03;13.60;99.90
14934;DHT22;7560;51.364;12.384;2023-05-07T10:48:15;13.70;99.90
14934;DHT22;7560;51.364;12.384;2023-05-07T10:53:31;13.20;99.90
14934;DHT22;7560;51.364;12.384;2023-05-07T10:58:36;12.80;99.90
14934;DHT22;7560;51.364;12.384;2023-05-07T11:04:13;13.40;99.90
14934;DHT22;7560;51.364;12.384;2023-05-07T11:09:15;13.80;99.90
14934;DHT22;7560;51.364;12.384;2023-05-07T11:14:43;13.70;99.90
14934;DHT22;7560;51.364;12.384;2023-05-07T11:19:50;13.60;99.90
14934;DHT22;7560;51.364;12.384;2023-05-07T11:24:53;13.50;99.90
14934;DHT22;7560;51.364;12.384;2023-05-07T11:29:56;13.70;99.90
14934;DHT22;7560;51.364;12.384;2023-05-07T11:34:59;13.80;99.90
14934;DHT22;7560;51.364;12.384;2023-05-07T11:40:05;13.80;99.90
14934;DHT22;7560;51.364;12.384;2023-05-07T11:45:08;14.70;99.90
14934;DHT22;7560;51.364;12.384;2023-05-07T11:50:15;15.10;99.90
14934;DHT22;7560;51.364;12.384;2023-05-07T11:55:18;14.40;99.90
14934;DHT22;7560;51.364;12.384;2023-05-07T12:00:23;14.20;99.90
14934;DHT22;7560;51.364;12.384;2023-05-07T12:05:26;14.70;99.90
14934;DHT22;7560;51.364;12.384;2023-05-07T12:10:30;14.20;99.90
14934;DHT22;7560;51.364;12.384;2023-05-07T12:15:35;14.40;99.90
14934;DHT22;7560;51.364;12.384;2023-05-07T12:20:37;14.40;99.90
14934;DHT22;7560;51.364;12.384;2023-05-07T12:25:41;15.30;99.90
14934;DHT22;7560;51.364;12.384;2023-05-07T12:30:50;15.50;99.90
14934;DHT22;7560;51.364;12.384;2023-05-07T12:35:54;15.00;99.90
14934;DHT22;7560;51.364;12.384;2023-05-07T12:40:59;14.40;99.90
14934;DHT22;7560;51.364;12.384;2023-05-07T12:46:05;14.40;99.90
14934;DHT22;7560;51.364;12.384;2023-05-07T12:51:07;14.80;99.90
14934;DHT22;7560;51.364;12.384;2023-05-07T12:56:11;15.90;99.90
14934;DHT22;7560;51.364;12.384;2023-05-07T13:01:13;15.70;99.90
14934;DHT22;7560;51.364;12.384;2023-05-07T13:06:24;16.10;99.90
14934;DHT22;7560;51.364;12.384;2023-05-07T13:11:26;16.10;99.90
14934;DHT22;7560;51.364;12.384;2023-05-07T13:16:30;15.80;99.90
14934;DHT22;7560;51.364;12.384;2023-05-07T13:21:32;15.90;99.90
14934;DHT22;7560;51.364;12.384;2023-05-07T13:26:36;15.60;99.90
14934;DHT22;7560;51.364;12.384;2023-05-07T13:31:38;15.80;99.90
14934;DHT22;7560;51.364;12.384;2023-05-07T13:36:44;15.80;99.90
14934;DHT22;7560;51.364;12.384;2023-05-07T13:41:46;15.90;99.90
14934;DHT22;7560;51.364;12.384;2023-05-07T13:46:48;15.70;99.90
14934;DHT22;7560;51.364;12.384;2023-05-07T13:51:50;15.60;99.90
14934;DHT22;7560;51.364;12.384;2023-05-07T13:56:52;15.40;99.90
14934;DHT22;7560;51.364;12.384;2023-05-07T14:01:57;16.10;99.90
14934;DHT22;7560;51.364;12.384;2023-05-07T14:06:58;15.80;99.90
14934;DHT22;7560;51.364;12.384;2023-05-07T14:12:00;15.80;99.90
14934;DHT22;7560;51.364;12.384;2023-05-07T14:17:03;16.30;99.90
14934;DHT22;7560;51.364;12.384;2023-05-07T14:22:05;15.70;99.90
14934;DHT22;7560;51.364;12.384;2023-05-07T14:27:06;16.00;99.90
14934;DHT22;7560;51.364;12.384;2023-05-07T14:32:08;15.60;99.90
14934;DHT22;7560;51.364;12.384;2023-05-07T14:37:11;15.50;99.90
14934;DHT22;7560;51.364;12.384;2023-05-07T14:42:17;16.00;99.90
14934;DHT22;7560;51.364;12.384;2023-05-07T14:47:25;15.80;99.90
14934;DHT22;7560;51.364;12.384;2023-05-07T14:52:30;16.00;99.90
14934;DHT22;7560;51.364;12.384;2023-05-07T14:57:31;16.30;99.90
14934;DHT22;7560;51.364;12.384;2023-05-07T15:02:44;17.00;99.90
14934;DHT22;7560;51.364;12.384;2023-05-07T15:07:46;16.40;99.90
14934;DHT22;7560;51.364;12.384;2023-05-07T15:13:05;16.20;99.90
14934;DHT22;7560;51.364;12.384;2023-05-07T15:18:07;16.10;99.90
14934;DHT22;7560;51.364;12.384;2023-05-07T15:23:11;15.70;99.90
14934;DHT22;7560;51.364;12.384;2023-05-07T15:28:16;15.50;99.90
14934;DHT22;7560;51.364;12.384;2023-05-07T15:33:18;15.50;99.90
14934;DHT22;7560;51.364;12.384;2023-05-07T15:38:22;15.50;99.90
14934;DHT22;7560;51.364;12.384;2023-05-07T15:43:28;15.50;99.90
14934;DHT22;7560;51.364;12.384;2023-05-07T15:48:31;15.30;99.90
14934;DHT22;7560;51.364;12.384;2023-05-07T15:53:34;15.30;99.90
14934;DHT22;7560;51.364;12.384;2023-05-07T15:58:36;15.10;99.90
14934;DHT22;7560;51.364;12.384;2023-05-07T16:03:39;15.30;99.90
14934;DHT22;7560;51.364;12.384;2023-05-07T16:08:42;14.90;99.90
14934;DHT22;7560;51.364;12.384;2023-05-07T16:13:50;15.00;99.90
14934;DHT22;7560;51.364;12.384;2023-05-07T16:18:55;15.20;99.90
14934;DHT22;7560;51.364;12.384;2023-05-07T16:23:58;15.30;99.90
14934;DHT22;7560;51.364;12.384;2023-05-07T16:29:00;15.00;99.90
14934;DHT22;7560;51.364;12.384;2023-05-07T16:34:04;15.20;99.90
14934;DHT22;7560;51.364;12.384;2023-05-07T16:39:05;15.20;99.90
14934;DHT22;7560;51.364;12.384;2023-05-07T16:44:10;15.70;99.90
14934;DHT22;7560;51.364;12.384;2023-05-07T16:49:12;15.90;99.90
14934;DHT22;7560;51.364;12.384;2023-05-07T16:54:14;15.70;99.90
14934;DHT22;7560;51.364;12.384;2023-05-07T16:59:16;14.70;99.90
14934;DHT22;7560;51.364;12.384;2023-05-07T17:04:18;14.60;99.90
14934;DHT22;7560;51.364;12.384;2023-05-07T17:09:21;15.00;99.90
14934;DHT22;7560;51.364;12.384;2023-05-07T17:14:23;14.70;99.90
14934;DHT22;7560;51.364;12.384;2023-05-07T17:19:26;14.90;99.90
14934;DHT22;7560;51.364;12.384;2023-05-07T17:24:27;15.30;99.90
14934;DHT22;7560;51.364;12.384;2023-05-07T17:29:30;14.70;99.90
14934;DHT22;7560;51.364;12.384;2023-05-07T17:34:32;14.90;99.90
14934;DHT22;7560;51.364;12.384;2023-05-07T17:39:34;14.80;99.90
14934;DHT22;7560;51.364;12.384;2023-05-07T17:44:35;14.70;99.90
14934;DHT22;7560;51.364;12.384;2023-05-07T17:49:40;14.60;99.90
14934;DHT22;7560;51.364;12.384;2023-05-07T17:54:42;14.20;99.90
14934;DHT22;7560;51.364;12.384;2023-05-07T17:59:44;13.80;99.90
14934;DHT22;7560;51.364;12.384;2023-05-07T18:04:46;13.50;99.90
14934;DHT22;7560;51.364;12.384;2023-05-07T18:09:50;13.40;99.90
14934;DHT22;7560;51.364;12.384;2023-05-07T18:14:52;13.10;99.90
14934;DHT22;7560;51.364;12.384;2023-05-07T18:19:58;12.90;99.90
14934;DHT22;7560;51.364;12.384;2023-05-07T18:25:01;12.50;99.90
14934;DHT22;7560;51.364;12.384;2023-05-07T18:30:04;12.40;99.90
14934;DHT22;7560;51.364;12.384;2023-05-07T18:35:08;12.40;99.90
14934;DHT22;7560;51.364;12.384;2023-05-07T18:40:10;12.20;99.90
14934;DHT22;7560;51.364;12.384;2023-05-07T18:45:13;12.00;99.90
14934;DHT22;7560;51.364;12.384;2023-05-07T18:50:15;11.90;99.90
14934;DHT22;7560;51.364;12.384;2023-05-07T18:55:20;11.80;99.90
14934;DHT22;7560;51.364;12.384;2023-05-07T19:00:22;11.70;99.90
14934;DHT22;7560;51.364;12.384;2023-05-07T19:05:24;11.60;99.90
14934;DHT22;7560;51.364;12.384;2023-05-07T19:10:26;11.40;99.90
14934;DHT22;7560;51.364;12.384;2023-05-07T19:15:29;11.30;99.90
14934;DHT22;7560;51.364;12.384;2023-05-07T19:20:31;11.20;99.90
14934;DHT22;7560;51.364;12.384;2023-05-07T19:25:33;11.10;99.90
14934;DHT22;7560;51.364;12.384;2023-05-07T19:30:38;11.00;99.90
14934;DHT22;7560;51.364;12.384;2023-05-07T19:35:42;10.90;99.90
14934;DHT22;7560;51.364;12.384;2023-05-07T19:40:45;10.70;99.90
14934;DHT22;7560;51.364;12.384;2023-05-07T19:45:51;10.70;99.90
14934;DHT22;7560;51.364;12.384;2023-05-07T19:50:56;10.60;99.90
14934;DHT22;7560;51.364;12.384;2023-05-07T19:56:07;10.50;99.90
14934;DHT22;7560;51.364;12.384;2023-05-07T20:01:11;10.30;99.90
14934;DHT22;7560;51.364;12.384;2023-05-07T20:06:13;10.30;99.90
14934;DHT22;7560;51.364;12.384;2023-05-07T20:11:19;10.30;99.90
14934;DHT22;7560;51.364;12.384;2023-05-07T20:16:21;10.20;99.90
14934;DHT22;7560;51.364;12.384;2023-05-07T20:21:23;10.30;99.90
14934;DHT22;7560;51.364;12.384;2023-05-07T20:26:25;10.20;99.90
14934;DHT22;7560;51.364;12.384;2023-05-07T20:31:27;10.10;99.90
14934;DHT22;7560;51.364;12.384;2023-05-07T20:36:31;10.00;99.90
14934;DHT22;7560;51.364;12.384;2023-05-07T20:41:33;10.00;99.90
14934;DHT22;7560;51.364;12.384;2023-05-07T20:46:37;9.90;99.90
14934;DHT22;7560;51.364;12.384;2023-05-07T20:51:43;9.80;99.90
14934;DHT22;7560;51.364;12.384;2023-05-07T20:56:45;9.80;99.90
14934;DHT22;7560;51.364;12.384;2023-05-07T21:01:48;9.70;99.90
14934;DHT22;7560;51.364;12.384;2023-05-07T21:06:50;9.70;99.90
14934;DHT22;7560;51.364;12.384;2023-05-07T21:11:52;9.60;99.90
14934;DHT22;7560;51.364;12.384;2023-05-07T21:16:56;9.60;99.90
14934;DHT22;7560;51.364;12.384;2023-05-07T21:21:58;9.50;99.90
14934;DHT22;7560;51.364;12.384;2023-05-07T21:27:01;9.50;99.90
14934;DHT22;7560;51.364;12.384;2023-05-07T21:32:04;9.50;99.90
14934;DHT22;7560;51.364;12.384;2023-05-07T21:37:07;9.40;99.90
14934;DHT22;7560;51.364;12.384;2023-05-07T21:42:09;9.40;99.90
14934;DHT22;7560;51.364;12.384;2023-05-07T21:47:13;9.30;99.90
14934;DHT22;7560;51.364;12.384;2023-05-07T21:52:16;9.30;99.90
14934;DHT22;7560;51.364;12.384;2023-05-07T21:57:21;9.20;99.90
14934;DHT22;7560;51.364;12.384;2023-05-07T22:02:24;9.20;99.90
14934;DHT22;7560;51.364;12.384;2023-05-07T22:07:26;9.20;99.90
14934;DHT22;7560;51.364;12.384;2023-05-07T22:12:29;9.10;99.90
14934;DHT22;7560;51.364;12.384;2023-05-07T22:17:30;9.00;99.90
14934;DHT22;7560;51.364;12.384;2023-05-07T22:22:47;9.00;99.90
14934;DHT22;7560;51.364;12.384;2023-05-07T22:27:53;9.00;99.90
14934;DHT22;7560;51.364;12.384;2023-05-07T22:32:54;8.90;99.90
14934;DHT22;7560;51.364;12.384;2023-05-07T22:37:56;8.90;99.90
14934;DHT22;7560;51.364;12.384;2023-05-07T22:43:00;8.80;99.90
14934;DHT22;7560;51.364;12.384;2023-05-07T22:48:03;8.80;99.90
14934;DHT22;7560;51.364;12.384;2023-05-07T22:53:05;8.70;99.90
14934;DHT22;7560;51.364;12.384;2023-05-07T22:58:10;8.70;99.90
14934;DHT22;7560;51.364;12.384;2023-05-07T23:03:12;8.60;99.90
14934;DHT22;7560;51.364;12.384;2023-05-07T23:08:14;8.70;99.90
14934;DHT22;7560;51.364;12.384;2023-05-07T23:13:16;8.70;99.90
14934;DHT22;7560;51.364;12.384;2023-05-07T23:18:18;8.50;99.90
14934;DHT22;7560;51.364;12.384;2023-05-07T23:23:20;8.50;99.90
14934;DHT22;7560;51.364;12.384;2023-05-07T23:28:22;8.50;99.90
14934;DHT22;7560;51.364;12.384;2023-05-07T23:33:25;8.40;99.90
14934;DHT22;7560;51.364;12.384;2023-05-07T23:38:27;8.40;99.90
14934;DHT22;7560;51.364;12.384;2023-05-07T23:43:29;8.40;99.90
14934;DHT22;7560;51.364;12.384;2023-05-07T23:48:31;8.40;99.90
14934;DHT22;7560;51.364;12.384;2023-05-07T23:53:32;8.30;99.90
14934;DHT22;7560;51.364;12.384;2023-05-07T23:58:34;8.30;99.90
